Time,TemperatureF,DewpointF,PressureIn,WindDirection,WindDirectionDegrees,WindSpeedMPH,WindSpeedGustMPH,Humidity,HourlyPrecipIn,Conditions,Clouds,dailyrainin,SoftwareType,DateUTC
2013-08-03 00:01:00,65.4,59.1,29.96,North,-999,0.0,0.0,80,0.00,,,-99.99,WeatherLink 5.7,2013-08-03 04:01:00,
2013-08-03 00:11:00,65.2,58.5,29.96,North,-999,0.0,0.0,79,0.00,,,-99.99,WeatherLink 5.7,2013-08-03 04:11:00,
2013-08-03 00:21:00,65.0,59.0,29.96,North,-999,0.0,0.0,81,0.00,,,-99.99,WeatherLink 5.7,2013-08-03 04:21:00,
2013-08-03 00:31:00,64.9,59.6,29.96,North,-999,0.0,0.0,83,0.00,,,-99.99,WeatherLink 5.7,2013-08-03 04:31:00,
2013-08-03 00:41:00,64.8,59.2,29.95,North,-999,0.0,0.0,82,0.00,,,-99.99,WeatherLink 5.7,2013-08-03 04:41:00,
2013-08-03 00:51:00,64.7,58.7,29.95,North,-999,0.0,0.0,81,0.00,,,-99.99,WeatherLink 5.7,2013-08-03 04:51:00,
2013-08-03 01:01:00,64.6,58.6,29.96,North,-999,0.0,0.0,81,0.00,,,-99.99,WeatherLink 5.7,2013-08-03 05:01:00,
2013-08-03 01:11:00,64.5,58.5,29.95,North,-999,0.0,0.0,81,0.00,,,-99.99,WeatherLink 5.7,2013-08-03 05:11:00,
2013-08-03 01:21:00,64.4,57.4,29.95,North,-999,0.0,0.0,78,0.00,,,-99.99,WeatherLink 5.7,2013-08-03 05:21:00,
2013-08-03 01:31:00,64.3,57.6,29.95,North,-999,0.0,0.0,79,0.00,,,-99.99,WeatherLink 5.7,2013-08-03 05:31:00,
2013-08-03 01:41:00,64.1,57.8,29.95,North,-999,0.0,0.0,80,0.00,,,-99.99,WeatherLink 5.7,2013-08-03 05:41:00,
2013-08-03 01:52:00,64.0,58.1,29.95,North,-999,0.0,0.0,81,0.00,,,-99.99,WeatherLink 5.7,2013-08-03 05:52:00,
2013-08-03 02:01:00,63.9,58.3,29.94,North,-999,0.0,0.0,82,0.00,,,-99.99,WeatherLink 5.7,2013-08-03 06:01:00,
2013-08-03 02:11:00,63.7,57.8,29.93,NNE,22,0.0,1.0,81,0.00,,,-99.99,WeatherLink 5.7,2013-08-03 06:11:00,
2013-08-03 02:21:00,63.6,57.7,29.93,North,-999,0.0,0.0,81,0.00,,,-99.99,WeatherLink 5.7,2013-08-03 06:21:00,
2013-08-03 02:31:00,63.7,57.4,29.94,North,-999,0.0,0.0,80,0.00,,,-99.99,WeatherLink 5.7,2013-08-03 06:31:00,
2013-08-03 02:41:00,63.8,57.2,29.94,North,-999,0.0,0.0,79,0.00,,,-99.99,WeatherLink 5.7,2013-08-03 06:41:00,
2013-08-03 02:51:00,63.8,57.2,29.93,North,-999,0.0,0.0,79,0.00,,,-99.99,WeatherLink 5.7,2013-08-03 06:51:00,
2013-08-03 03:01:00,63.9,57.6,29.92,North,-999,0.0,0.0,80,0.00,,,-99.99,WeatherLink 5.7,2013-08-03 07:01:00,
2013-08-03 03:11:00,64.0,58.4,29.92,North,-999,0.0,0.0,82,0.00,,,-99.99,WeatherLink 5.7,2013-08-03 07:11:00,
2013-08-03 03:21:00,63.9,58.0,29.93,North,-999,0.0,0.0,81,0.00,,,-99.99,WeatherLink 5.7,2013-08-03 07:21:00,
2013-08-03 03:31:00,64.0,58.4,29.92,North,-999,0.0,1.0,82,0.00,,,-99.99,WeatherLink 5.7,2013-08-03 07:31:00,
2013-08-03 03:41:00,64.1,58.5,29.92,NNE,22,0.0,1.0,82,0.00,,,-99.99,WeatherLink 5.7,2013-08-03 07:41:00,
2013-08-03 03:51:00,64.1,58.1,29.92,North,-999,0.0,0.0,81,0.00,,,-99.99,WeatherLink 5.7,2013-08-03 07:51:00,
2013-08-03 04:01:00,64.2,58.2,29.93,North,-999,0.0,0.0,81,0.00,,,-99.99,WeatherLink 5.7,2013-08-03 08:01:00,
2013-08-03 04:11:00,64.3,58.7,29.92,North,-999,0.0,0.0,82,0.00,,,-99.99,WeatherLink 5.7,2013-08-03 08:11:00,
2013-08-03 04:21:00,64.3,59.0,29.92,North,-999,0.0,0.0,83,0.00,,,-99.99,WeatherLink 5.7,2013-08-03 08:21:00,
2013-08-03 04:32:00,64.2,57.2,29.93,North,-999,0.0,0.0,78,0.00,,,-99.99,WeatherLink 5.7,2013-08-03 08:32:00,
2013-08-03 04:41:00,64.3,58.0,29.93,North,-999,0.0,0.0,80,0.00,,,-99.99,WeatherLink 5.7,2013-08-03 08:41:00,
2013-08-03 04:51:00,64.4,57.4,29.92,North,-999,0.0,0.0,78,0.00,,,-99.99,WeatherLink 5.7,2013-08-03 08:51:00,
2013-08-03 05:01:00,64.3,58.0,29.93,North,-999,0.0,0.0,80,0.00,,,-99.99,WeatherLink 5.7,2013-08-03 09:01:00,
2013-08-03 05:12:00,64.3,58.3,29.93,North,-999,0.0,0.0,81,0.00,,,-99.99,WeatherLink 5.7,2013-08-03 09:12:00,
2013-08-03 05:21:00,64.3,57.6,29.94,North,-999,0.0,0.0,79,0.00,,,-99.99,WeatherLink 5.7,2013-08-03 09:21:00,
2013-08-03 05:31:00,64.3,59.4,29.93,North,-999,0.0,1.0,84,0.00,,,-99.99,WeatherLink 5.7,2013-08-03 09:31:00,
2013-08-03 05:41:00,64.2,58.9,29.94,North,-999,0.0,0.0,83,0.00,,,-99.99,WeatherLink 5.7,2013-08-03 09:41:00,
2013-08-03 05:51:00,64.1,59.2,29.94,North,-999,0.0,0.0,84,0.00,,,-99.99,WeatherLink 5.7,2013-08-03 09:51:00,
2013-08-03 06:01:00,64.2,59.3,29.94,North,-999,0.0,0.0,84,0.00,,,-99.99,WeatherLink 5.7,2013-08-03 10:01:00,
2013-08-03 06:11:00,64.0,59.1,29.93,North,-999,0.0,0.0,84,0.00,,,-99.99,WeatherLink 5.7,2013-08-03 10:11:00,
2013-08-03 06:21:00,64.1,59.2,29.94,North,-999,0.0,0.0,84,0.00,,,-99.99,WeatherLink 5.7,2013-08-03 10:21:00,
2013-08-03 06:31:00,64.1,58.1,29.95,North,-999,0.0,0.0,81,0.00,,,-99.99,WeatherLink 5.7,2013-08-03 10:31:00,
2013-08-03 06:41:00,64.1,58.5,29.94,North,-999,0.0,0.0,82,0.00,,,-99.99,WeatherLink 5.7,2013-08-03 10:41:00,
2013-08-03 06:51:00,64.0,58.4,29.95,North,-999,0.0,0.0,82,0.00,,,-99.99,WeatherLink 5.7,2013-08-03 10:51:00,
2013-08-03 07:01:00,63.9,58.3,29.95,North,-999,0.0,0.0,82,0.00,,,-99.99,WeatherLink 5.7,2013-08-03 11:01:00,
2013-08-03 07:11:00,63.7,58.4,29.95,North,-999,0.0,0.0,83,0.01,,,-99.99,WeatherLink 5.7,2013-08-03 11:11:00,
2013-08-03 07:21:00,63.5,58.9,29.95,North,-999,0.0,0.0,85,0.03,,,-99.99,WeatherLink 5.7,2013-08-03 11:21:00,
2013-08-03 07:31:00,63.1,58.8,29.95,North,-999,0.0,0.0,86,0.04,,,-99.99,WeatherLink 5.7,2013-08-03 11:31:00,
2013-08-03 07:41:00,62.8,58.9,29.95,North,-999,0.0,0.0,87,0.04,,,-99.99,WeatherLink 5.7,2013-08-03 11:41:00,
2013-08-03 07:51:00,62.7,59.1,29.95,North,-999,0.0,0.0,88,0.04,,,-99.99,WeatherLink 5.7,2013-08-03 11:51:00,
2013-08-03 08:01:00,62.6,59.3,29.95,North,-999,0.0,0.0,89,0.04,,,-99.99,WeatherLink 5.7,2013-08-03 12:01:00,
2013-08-03 08:11:00,62.6,59.6,29.94,North,-999,0.0,0.0,90,0.03,,,-99.99,WeatherLink 5.7,2013-08-03 12:11:00,
2013-08-03 08:21:00,62.7,59.7,29.94,North,-999,0.0,0.0,90,0.02,,,-99.99,WeatherLink 5.7,2013-08-03 12:21:00,
2013-08-03 08:31:00,62.6,59.6,29.95,North,-999,0.0,0.0,90,0.01,,,-99.99,WeatherLink 5.7,2013-08-03 12:31:00,
2013-08-03 08:41:00,62.8,59.8,29.95,North,-999,0.0,0.0,90,0.01,,,-99.99,WeatherLink 5.7,2013-08-03 12:41:00,
2013-08-03 08:50:00,62.8,60.1,29.95,North,-999,0.0,0.0,91,0.02,,,-99.99,WeatherLink 5.7,2013-08-03 12:50:00,
2013-08-03 09:01:00,62.8,60.1,29.94,NNE,22,0.0,1.0,91,0.02,,,-99.99,WeatherLink 5.7,2013-08-03 13:01:00,
2013-08-03 09:11:00,62.8,60.1,29.95,North,-999,0.0,0.0,91,0.03,,,-99.99,WeatherLink 5.7,2013-08-03 13:11:00,
2013-08-03 09:22:00,62.9,60.2,29.95,East,90,0.0,2.0,91,0.02,,,-99.99,WeatherLink 5.7,2013-08-03 13:22:00,
2013-08-03 09:32:00,63.0,60.3,29.95,East,90,0.0,2.0,91,0.02,,,-99.99,WeatherLink 5.7,2013-08-03 13:32:00,
2013-08-03 09:41:00,63.1,60.7,29.95,East,90,0.0,2.0,92,0.02,,,-99.99,WeatherLink 5.7,2013-08-03 13:41:00,
2013-08-03 09:51:00,63.2,60.8,29.95,East,90,0.0,1.0,92,0.02,,,-99.99,WeatherLink 5.7,2013-08-03 13:51:00,
2013-08-03 10:02:00,63.3,60.9,29.94,East,90,0.0,1.0,92,0.03,,,-99.99,WeatherLink 5.7,2013-08-03 14:02:00,
2013-08-03 10:12:00,63.5,61.1,29.95,North,-999,0.0,0.0,92,0.02,,,-99.99,WeatherLink 5.7,2013-08-03 14:12:00,
2013-08-03 10:21:00,63.7,61.6,29.95,North,-999,0.0,0.0,93,0.02,,,-99.99,WeatherLink 5.7,2013-08-03 14:21:00,
2013-08-03 10:32:00,64.0,61.9,29.96,East,90,0.0,1.0,93,0.03,,,-99.99,WeatherLink 5.7,2013-08-03 14:32:00,
2013-08-03 10:41:00,64.2,62.1,29.95,East,90,0.0,1.0,93,0.03,,,-99.99,WeatherLink 5.7,2013-08-03 14:41:00,
2013-08-03 10:52:00,64.5,62.4,29.96,East,90,0.0,1.0,93,0.02,,,-99.99,WeatherLink 5.7,2013-08-03 14:52:00,
2013-08-03 11:02:00,64.8,62.7,29.96,North,-999,0.0,0.0,93,0.01,,,-99.99,WeatherLink 5.7,2013-08-03 15:02:00,
2013-08-03 11:11:00,65.2,63.1,29.95,North,-999,0.0,0.0,93,0.01,,,-99.99,WeatherLink 5.7,2013-08-03 15:11:00,
2013-08-03 11:22:00,65.5,63.4,29.96,North,-999,0.0,0.0,93,0.02,,,-99.99,WeatherLink 5.7,2013-08-03 15:22:00,
2013-08-03 11:32:00,65.5,63.4,29.95,East,90,0.0,1.0,93,0.02,,,-99.99,WeatherLink 5.7,2013-08-03 15:32:00,
2013-08-03 11:41:00,65.7,63.6,29.95,North,-999,0.0,0.0,93,0.02,,,-99.99,WeatherLink 5.7,2013-08-03 15:41:00,
2013-08-03 11:52:00,65.7,63.6,29.95,North,-999,0.0,0.0,93,0.03,,,-99.99,WeatherLink 5.7,2013-08-03 15:52:00,
2013-08-03 12:01:00,65.8,63.7,29.95,North,-999,0.0,0.0,93,0.03,,,-99.99,WeatherLink 5.7,2013-08-03 16:01:00,
2013-08-03 12:12:00,65.7,63.6,29.95,North,-999,0.0,0.0,93,0.04,,,-99.99,WeatherLink 5.7,2013-08-03 16:12:00,
2013-08-03 12:21:00,65.7,63.9,29.95,North,-999,0.0,0.0,94,0.03,,,-99.99,WeatherLink 5.7,2013-08-03 16:21:00,
2013-08-03 12:32:00,65.9,63.8,29.95,North,-999,0.0,0.0,93,0.02,,,-99.99,WeatherLink 5.7,2013-08-03 16:32:00,
2013-08-03 12:42:00,66.3,64.2,29.94,North,-999,0.0,1.0,93,0.03,,,-99.99,WeatherLink 5.7,2013-08-03 16:42:00,
2013-08-03 12:52:00,66.8,64.7,29.94,East,90,0.0,1.0,93,0.02,,,-99.99,WeatherLink 5.7,2013-08-03 16:52:00,
2013-08-03 13:02:00,66.7,64.6,29.94,East,90,0.0,1.0,93,0.02,,,-99.99,WeatherLink 5.7,2013-08-03 17:02:00,
2013-08-03 13:12:00,66.9,64.8,29.94,North,-999,0.0,0.0,93,0.01,,,-99.99,WeatherLink 5.7,2013-08-03 17:12:00,
2013-08-03 13:22:00,67.2,64.8,29.93,North,-999,0.0,1.0,92,0.01,,,-99.99,WeatherLink 5.7,2013-08-03 17:22:00,
2013-08-03 13:32:00,67.6,65.2,29.94,NE,45,0.0,2.0,92,0.01,,,-99.99,WeatherLink 5.7,2013-08-03 17:32:00,
2013-08-03 13:42:00,68.0,65.3,29.94,ENE,67,0.0,3.0,91,0.00,,,-99.99,WeatherLink 5.7,2013-08-03 17:42:00,
2013-08-03 13:52:00,68.6,65.5,29.94,ENE,67,0.0,2.0,90,0.00,,,-99.99,WeatherLink 5.7,2013-08-03 17:52:00,
2013-08-03 14:02:00,68.9,65.5,29.95,NNE,22,0.0,3.0,89,0.00,,,-99.99,WeatherLink 5.7,2013-08-03 18:02:00,
2013-08-03 14:12:00,69.1,64.7,29.94,East,90,1.0,2.0,86,0.00,,,-99.99,WeatherLink 5.7,2013-08-03 18:12:00,
2013-08-03 14:22:00,69.6,65.2,29.94,ENE,67,1.0,3.0,86,0.00,,,-99.99,WeatherLink 5.7,2013-08-03 18:22:00,
2013-08-03 14:32:00,70.2,64.8,29.94,ENE,67,1.0,3.0,83,0.00,,,-99.99,WeatherLink 5.7,2013-08-03 18:32:00,
2013-08-03 14:42:00,70.6,65.2,29.93,NE,45,1.0,4.0,83,0.00,,,-99.99,WeatherLink 5.7,2013-08-03 18:42:00,
2013-08-03 14:52:00,71.0,65.6,29.93,ENE,67,1.0,4.0,83,0.00,,,-99.99,WeatherLink 5.7,2013-08-03 18:52:00,
2013-08-03 15:02:00,71.2,65.8,29.94,ENE,67,0.0,2.0,83,0.00,,,-99.99,WeatherLink 5.7,2013-08-03 19:02:00,
2013-08-03 15:11:00,71.7,65.2,29.93,ENE,67,1.0,4.0,80,0.00,,,-99.99,WeatherLink 5.7,2013-08-03 19:11:00,
2013-08-03 15:22:00,72.0,65.1,29.93,NE,45,0.0,3.0,79,0.00,,,-99.99,WeatherLink 5.7,2013-08-03 19:22:00,
2013-08-03 15:32:00,72.1,64.9,29.93,SE,135,1.0,3.0,78,0.00,,,-99.99,WeatherLink 5.7,2013-08-03 19:32:00,
2013-08-03 15:42:00,71.9,65.0,29.92,NE,45,0.0,4.0,79,0.00,,,-99.99,WeatherLink 5.7,2013-08-03 19:42:00,
2013-08-03 15:52:00,71.2,64.4,29.92,NE,45,0.0,1.0,79,0.00,,,-99.99,WeatherLink 5.7,2013-08-03 19:52:00,
2013-08-03 16:02:00,70.7,64.2,29.92,NE,45,0.0,1.0,80,0.00,,,-99.99,WeatherLink 5.7,2013-08-03 20:02:00,
2013-08-03 16:12:00,70.6,64.5,29.91,ENE,67,0.0,2.0,81,0.00,,,-99.99,WeatherLink 5.7,2013-08-03 20:12:00,
2013-08-03 16:22:00,70.6,64.5,29.90,ENE,67,0.0,2.0,81,0.00,,,-99.99,WeatherLink 5.7,2013-08-03 20:22:00,
2013-08-03 16:32:00,70.7,64.6,29.90,ENE,67,0.0,2.0,81,0.00,,,-99.99,WeatherLink 5.7,2013-08-03 20:32:00,
2013-08-03 16:42:00,71.0,65.2,29.90,NE,45,0.0,3.0,82,0.00,,,-99.99,WeatherLink 5.7,2013-08-03 20:42:00,
2013-08-03 16:51:00,71.4,65.3,29.89,ENE,67,0.0,3.0,81,0.00,,,-99.99,WeatherLink 5.7,2013-08-03 20:51:00,
2013-08-03 17:01:00,71.7,64.8,29.89,ENE,67,0.0,3.0,79,0.00,,,-99.99,WeatherLink 5.7,2013-08-03 21:01:00,
2013-08-03 17:12:00,71.7,65.9,29.89,ENE,67,0.0,2.0,82,0.00,,,-99.99,WeatherLink 5.7,2013-08-03 21:12:00,
2013-08-03 17:22:00,71.6,65.8,29.90,ENE,67,0.0,2.0,82,0.00,,,-99.99,WeatherLink 5.7,2013-08-03 21:22:00,
2013-08-03 17:32:00,71.6,65.5,29.90,ENE,67,0.0,4.0,81,0.00,,,-99.99,WeatherLink 5.7,2013-08-03 21:32:00,
2013-08-03 17:42:00,71.4,64.5,29.91,ENE,67,1.0,5.0,79,0.00,,,-99.99,WeatherLink 5.7,2013-08-03 21:42:00,
2013-08-03 17:52:00,71.1,64.6,29.91,ENE,67,0.0,3.0,80,0.00,,,-99.99,WeatherLink 5.7,2013-08-03 21:52:00,
2013-08-03 18:01:00,71.0,64.9,29.91,ENE,67,0.0,2.0,81,0.00,,,-99.99,WeatherLink 5.7,2013-08-03 22:01:00,
2013-08-03 18:12:00,71.0,65.6,29.92,SE,135,0.0,2.0,83,0.00,,,-99.99,WeatherLink 5.7,2013-08-03 22:12:00,
2013-08-03 18:22:00,70.8,65.7,29.92,SE,135,0.0,1.0,84,0.00,,,-99.99,WeatherLink 5.7,2013-08-03 22:22:00,
2013-08-03 18:32:00,70.6,65.9,29.93,SE,135,0.0,2.0,85,0.00,,,-99.99,WeatherLink 5.7,2013-08-03 22:32:00,
2013-08-03 18:41:00,70.6,65.9,29.93,ENE,67,0.0,2.0,85,0.00,,,-99.99,WeatherLink 5.7,2013-08-03 22:41:00,
2013-08-03 18:52:00,70.5,65.8,29.91,North,-999,0.0,0.0,85,0.00,,,-99.99,WeatherLink 5.7,2013-08-03 22:52:00,
2013-08-03 19:02:00,70.2,65.5,29.91,North,-999,0.0,0.0,85,0.00,,,-99.99,WeatherLink 5.7,2013-08-03 23:02:00,
2013-08-03 19:12:00,70.1,65.4,29.91,North,-999,0.0,0.0,85,0.00,,,-99.99,WeatherLink 5.7,2013-08-03 23:12:00,
2013-08-03 19:22:00,69.9,65.2,29.91,North,-999,0.0,0.0,85,0.00,,,-99.99,WeatherLink 5.7,2013-08-03 23:22:00,
2013-08-03 19:32:00,69.6,64.9,29.92,North,-999,0.0,0.0,85,0.00,,,-99.99,WeatherLink 5.7,2013-08-03 23:32:00,
2013-08-03 19:42:00,69.3,64.6,29.92,ENE,67,0.0,1.0,85,0.00,,,-99.99,WeatherLink 5.7,2013-08-03 23:42:00,
2013-08-03 19:52:00,69.0,64.3,29.91,North,-999,0.0,0.0,85,0.00,,,-99.99,WeatherLink 5.7,2013-08-03 23:52:00,
2013-08-03 20:02:00,68.7,64.0,29.93,North,-999,0.0,0.0,85,0.00,,,-99.99,WeatherLink 5.7,2013-08-04 00:02:00,
2013-08-03 20:12:00,68.5,64.1,29.92,North,-999,0.0,0.0,86,0.00,,,-99.99,WeatherLink 5.7,2013-08-04 00:12:00,
2013-08-03 20:22:00,68.2,64.2,29.93,North,-999,0.0,0.0,87,0.00,,,-99.99,WeatherLink 5.7,2013-08-04 00:22:00,
2013-08-03 20:31:00,67.9,64.2,29.94,North,-999,0.0,0.0,88,0.00,,,-99.99,WeatherLink 5.7,2013-08-04 00:31:00,
2013-08-03 20:42:00,67.8,64.1,29.94,ENE,67,0.0,2.0,88,0.05,,,-99.99,WeatherLink 5.7,2013-08-04 00:42:00,
2013-08-03 20:52:00,67.3,63.3,29.95,ENE,67,0.0,2.0,87,0.19,,,-99.99,WeatherLink 5.7,2013-08-04 00:52:00,
2013-08-03 21:02:00,66.1,62.1,29.95,ESE,112,0.0,2.0,87,0.25,,,-99.99,WeatherLink 5.7,2013-08-04 01:02:00,
2013-08-03 21:11:00,64.9,61.3,29.94,ESE,112,0.0,1.0,88,0.27,,,-99.99,WeatherLink 5.7,2013-08-04 01:11:00,
2013-08-03 21:21:00,64.3,61.0,29.94,North,-999,0.0,0.0,89,0.27,,,-99.99,WeatherLink 5.7,2013-08-04 01:21:00,
2013-08-03 21:31:00,64.3,61.0,29.93,North,-999,0.0,0.0,89,0.27,,,-99.99,WeatherLink 5.7,2013-08-04 01:31:00,
2013-08-03 21:41:00,64.2,60.9,29.93,North,-999,0.0,0.0,89,0.22,,,-99.99,WeatherLink 5.7,2013-08-04 01:41:00,
2013-08-03 21:51:00,64.1,61.1,29.93,North,-999,0.0,0.0,90,0.08,,,-99.99,WeatherLink 5.7,2013-08-04 01:51:00,
2013-08-03 22:02:00,64.0,61.0,29.94,North,-999,0.0,0.0,90,0.02,,,-99.99,WeatherLink 5.7,2013-08-04 02:02:00,
2013-08-03 22:12:00,63.9,60.9,29.93,North,-999,0.0,0.0,90,0.00,,,-99.99,WeatherLink 5.7,2013-08-04 02:12:00,
2013-08-03 22:21:00,63.7,61.0,29.93,North,-999,0.0,0.0,91,0.00,,,-99.99,WeatherLink 5.7,2013-08-04 02:21:00,
2013-08-03 22:31:00,63.6,60.9,29.92,North,-999,0.0,0.0,91,0.00,,,-99.99,WeatherLink 5.7,2013-08-04 02:31:00,
2013-08-03 22:41:00,63.7,61.0,29.93,North,-999,0.0,0.0,91,0.00,,,-99.99,WeatherLink 5.7,2013-08-04 02:41:00,
2013-08-03 22:51:00,63.6,60.9,29.93,North,-999,0.0,0.0,91,0.00,,,-99.99,WeatherLink 5.7,2013-08-04 02:51:00,
2013-08-03 23:02:00,63.5,60.8,29.92,North,-999,0.0,0.0,91,0.00,,,-99.99,WeatherLink 5.7,2013-08-04 03:02:00,
2013-08-03 23:11:00,63.3,60.6,29.93,North,-999,0.0,0.0,91,0.00,,,-99.99,WeatherLink 5.7,2013-08-04 03:11:00,
2013-08-03 23:21:00,63.3,60.6,29.93,North,-999,0.0,0.0,91,0.00,,,-99.99,WeatherLink 5.7,2013-08-04 03:21:00,
2013-08-03 23:31:00,63.3,60.6,29.93,North,-999,0.0,0.0,91,0.00,,,-99.99,WeatherLink 5.7,2013-08-04 03:31:00,
2013-08-03 23:41:00,63.2,60.5,29.93,North,-999,0.0,0.0,91,0.00,,,-99.99,WeatherLink 5.7,2013-08-04 03:41:00,
2013-08-03 23:52:00,63.0,60.3,29.94,North,-999,0.0,0.0,91,0.00,,,-99.99,WeatherLink 5.7,2013-08-04 03:52:00,